sensor_id;sensor_type;location;lat;lon;timestamp;P1;durP1;ratioP1;P2;durP2;ratioP2
10687;SDS011;5392;42.688;23.298;2023-02-28T00:00:11;24.20;;;17.23;;
10687;SDS011;5392;42.688;23.298;2023-02-28T00:02:39;26.23;;;17.42;;
10687;SDS011;5392;42.688;23.298;2023-02-28T00:05:09;25.02;;;17.55;;
10687;SDS011;5392;42.688;23.298;2023-02-28T00:07:37;26.50;;;16.42;;
10687;SDS011;5392;42.688;23.298;2023-02-28T00:10:05;28.92;;;17.33;;
10687;SDS011;5392;42.688;23.298;2023-02-28T00:12:34;27.95;;;17.42;;
10687;SDS011;5392;42.688;23.298;2023-02-28T00:15:02;28.40;;;17.63;;
10687;SDS011;5392;42.688;23.298;2023-02-28T00:17:32;24.88;;;16.30;;
10687;SDS011;5392;42.688;23.298;2023-02-28T00:19:59;22.92;;;14.80;;
10687;SDS011;5392;42.688;23.298;2023-02-28T00:22:28;23.10;;;16.08;;
10687;SDS011;5392;42.688;23.298;2023-02-28T00:24:55;24.17;;;15.75;;
10687;SDS011;5392;42.688;23.298;2023-02-28T00:27:22;23.33;;;15.43;;
10687;SDS011;5392;42.688;23.298;2023-02-28T00:29:48;23.38;;;15.27;;
10687;SDS011;5392;42.688;23.298;2023-02-28T00:32:15;21.17;;;13.88;;
10687;SDS011;5392;42.688;23.298;2023-02-28T00:34:42;20.58;;;13.85;;
10687;SDS011;5392;42.688;23.298;2023-02-28T00:37:09;21.50;;;12.77;;
10687;SDS011;5392;42.688;23.298;2023-02-28T00:39:38;17.20;;;11.93;;
10687;SDS011;5392;42.688;23.298;2023-02-28T00:42:05;18.02;;;12.80;;
10687;SDS011;5392;42.688;23.298;2023-02-28T00:44:33;14.85;;;11.20;;
10687;SDS011;5392;42.688;23.298;2023-02-28T00:47:00;19.98;;;13.30;;
10687;SDS011;5392;42.688;23.298;2023-02-28T00:49:27;21.05;;;13.10;;
10687;SDS011;5392;42.688;23.298;2023-02-28T00:51:54;20.90;;;13.77;;
10687;SDS011;5392;42.688;23.298;2023-02-28T00:54:21;23.30;;;15.52;;
10687;SDS011;5392;42.688;23.298;2023-02-28T00:56:48;30.75;;;19.35;;
10687;SDS011;5392;42.688;23.298;2023-02-28T00:59:16;28.77;;;19.20;;
10687;SDS011;5392;42.688;23.298;2023-02-28T01:01:44;30.20;;;18.50;;
10687;SDS011;5392;42.688;23.298;2023-02-28T01:04:12;30.48;;;20.70;;
10687;SDS011;5392;42.688;23.298;2023-02-28T01:06:39;33.28;;;20.48;;
10687;SDS011;5392;42.688;23.298;2023-02-28T01:09:06;34.10;;;20.95;;
10687;SDS011;5392;42.688;23.298;2023-02-28T01:11:33;32.28;;;21.52;;
10687;SDS011;5392;42.688;23.298;2023-02-28T01:14:01;38.92;;;22.70;;
10687;SDS011;5392;42.688;23.298;2023-02-28T01:16:28;36.45;;;23.65;;
10687;SDS011;5392;42.688;23.298;2023-02-28T01:18:55;37.28;;;22.77;;
10687;SDS011;5392;42.688;23.298;2023-02-28T01:21:22;37.55;;;22.65;;
10687;SDS011;5392;42.688;23.298;2023-02-28T01:23:49;37.58;;;21.25;;
10687;SDS011;5392;42.688;23.298;2023-02-28T01:26:17;33.92;;;22.10;;
10687;SDS011;5392;42.688;23.298;2023-02-28T01:28:46;33.78;;;21.77;;
10687;SDS011;5392;42.688;23.298;2023-02-28T01:31:13;36.80;;;23.10;;
10687;SDS011;5392;42.688;23.298;2023-02-28T01:33:41;41.83;;;22.95;;
10687;SDS011;5392;42.688;23.298;2023-02-28T01:36:12;39.45;;;23.33;;
10687;SDS011;5392;42.688;23.298;2023-02-28T01:38:40;40.05;;;22.77;;
10687;SDS011;5392;42.688;23.298;2023-02-28T01:41:07;40.20;;;22.75;;
10687;SDS011;5392;42.688;23.298;2023-02-28T01:46:10;44.78;;;24.92;;
10687;SDS011;5392;42.688;23.298;2023-02-28T01:48:38;38.75;;;22.25;;
10687;SDS011;5392;42.688;23.298;2023-02-28T01:51:18;36.92;;;20.25;;
10687;SDS011;5392;42.688;23.298;2023-02-28T01:53:53;39.90;;;21.75;;
10687;SDS011;5392;42.688;23.298;2023-02-28T01:56:27;41.22;;;22.00;;
10687;SDS011;5392;42.688;23.298;2023-02-28T01:58:56;41.55;;;21.33;;
10687;SDS011;5392;42.688;23.298;2023-02-28T02:01:23;41.13;;;21.33;;
10687;SDS011;5392;42.688;23.298;2023-02-28T02:03:53;40.10;;;21.67;;
10687;SDS011;5392;42.688;23.298;2023-02-28T02:06:26;48.10;;;23.10;;
10687;SDS011;5392;42.688;23.298;2023-02-28T02:08:56;47.00;;;22.33;;
10687;SDS011;5392;42.688;23.298;2023-02-28T02:11:23;46.35;;;22.85;;
10687;SDS011;5392;42.688;23.298;2023-02-28T02:19:43;50.58;;;23.52;;
10687;SDS011;5392;42.688;23.298;2023-02-28T02:22:26;52.70;;;25.25;;
10687;SDS011;5392;42.688;23.298;2023-02-28T02:25:41;46.72;;;22.15;;
10687;SDS011;5392;42.688;23.298;2023-02-28T02:37:13;49.65;;;25.17;;
10687;SDS011;5392;42.688;23.298;2023-02-28T02:39:35;52.80;;;24.35;;
10687;SDS011;5392;42.688;23.298;2023-02-28T02:42:06;64.57;;;26.00;;
10687;SDS011;5392;42.688;23.298;2023-02-28T02:44:44;67.68;;;27.05;;
10687;SDS011;5392;42.688;23.298;2023-02-28T02:47:17;92.93;;;26.67;;
10687;SDS011;5392;42.688;23.298;2023-02-28T02:49:48;73.38;;;27.73;;
10687;SDS011;5392;42.688;23.298;2023-02-28T02:52:20;66.13;;;27.33;;
10687;SDS011;5392;42.688;23.298;2023-02-28T02:54:50;67.50;;;26.65;;
10687;SDS011;5392;42.688;23.298;2023-02-28T02:57:35;62.75;;;26.73;;
10687;SDS011;5392;42.688;23.298;2023-02-28T03:00:09;58.53;;;25.65;;
10687;SDS011;5392;42.688;23.298;2023-02-28T03:02:37;66.20;;;27.27;;
10687;SDS011;5392;42.688;23.298;2023-02-28T03:05:08;57.72;;;25.58;;
10687;SDS011;5392;42.688;23.298;2023-02-28T03:07:43;70.22;;;27.92;;
10687;SDS011;5392;42.688;23.298;2023-02-28T03:10:30;73.50;;;28.13;;
10687;SDS011;5392;42.688;23.298;2023-02-28T03:27:36;263.52;;;32.97;;
10687;SDS011;5392;42.688;23.298;2023-02-28T03:35:25;61.00;;;24.63;;
10687;SDS011;5392;42.688;23.298;2023-02-28T03:38:00;217.63;;;30.08;;
10687;SDS011;5392;42.688;23.298;2023-02-28T03:40:33;49.95;;;23.38;;
10687;SDS011;5392;42.688;23.298;2023-02-28T03:43:04;65.15;;;25.42;;
10687;SDS011;5392;42.688;23.298;2023-02-28T03:45:37;66.97;;;25.92;;
10687;SDS011;5392;42.688;23.298;2023-02-28T03:50:41;62.00;;;25.65;;
10687;SDS011;5392;42.688;23.298;2023-02-28T03:55:47;51.83;;;25.38;;
10687;SDS011;5392;42.688;23.298;2023-02-28T04:01:38;51.47;;;26.83;;
10687;SDS011;5392;42.688;23.298;2023-02-28T04:04:10;50.55;;;24.38;;
10687;SDS011;5392;42.688;23.298;2023-02-28T04:06:38;53.42;;;25.17;;
10687;SDS011;5392;42.688;23.298;2023-02-28T04:09:06;51.65;;;23.75;;
10687;SDS011;5392;42.688;23.298;2023-02-28T04:14:04;47.33;;;24.38;;
10687;SDS011;5392;42.688;23.298;2023-02-28T04:16:32;49.08;;;25.73;;
10687;SDS011;5392;42.688;23.298;2023-02-28T04:19:04;47.05;;;22.35;;
10687;SDS011;5392;42.688;23.298;2023-02-28T04:24:03;44.90;;;22.08;;
10687;SDS011;5392;42.688;23.298;2023-02-28T04:26:30;50.45;;;23.52;;
10687;SDS011;5392;42.688;23.298;2023-02-28T04:28:57;47.78;;;22.23;;
10687;SDS011;5392;42.688;23.298;2023-02-28T04:31:24;46.22;;;20.13;;
10687;SDS011;5392;42.688;23.298;2023-02-28T04:33:52;62.05;;;22.88;;
10687;SDS011;5392;42.688;23.298;2023-02-28T04:36:18;54.25;;;25.45;;
10687;SDS011;5392;42.688;23.298;2023-02-28T04:38:45;51.92;;;24.30;;
10687;SDS011;5392;42.688;23.298;2023-02-28T04:41:12;51.38;;;24.58;;
10687;SDS011;5392;42.688;23.298;2023-02-28T04:43:39;54.67;;;26.75;;
10687;SDS011;5392;42.688;23.298;2023-02-28T04:46:06;50.30;;;25.35;;
10687;SDS011;5392;42.688;23.298;2023-02-28T04:48:34;51.78;;;24.42;;
10687;SDS011;5392;42.688;23.298;2023-02-28T04:51:10;50.67;;;24.90;;
10687;SDS011;5392;42.688;23.298;2023-02-28T04:53:39;60.00;;;27.05;;
10687;SDS011;5392;42.688;23.298;2023-02-28T04:56:08;58.40;;;25.95;;
10687;SDS011;5392;42.688;23.298;2023-02-28T04:58:37;59.78;;;25.88;;
10687;SDS011;5392;42.688;23.298;2023-02-28T05:01:05;69.10;;;29.85;;
10687;SDS011;5392;42.688;23.298;2023-02-28T05:03:39;66.00;;;30.70;;
10687;SDS011;5392;42.688;23.298;2023-02-28T05:06:09;112.18;;;47.75;;
10687;SDS011;5392;42.688;23.298;2023-02-28T05:08:37;104.78;;;49.30;;
10687;SDS011;5392;42.688;23.298;2023-02-28T05:11:06;114.05;;;56.00;;
10687;SDS011;5392;42.688;23.298;2023-02-28T05:13:38;116.45;;;58.13;;
10687;SDS011;5392;42.688;23.298;2023-02-28T05:16:04;119.63;;;55.30;;
10687;SDS011;5392;42.688;23.298;2023-02-28T05:18:31;126.43;;;51.72;;
10687;SDS011;5392;42.688;23.298;2023-02-28T05:20:59;112.18;;;55.90;;
10687;SDS011;5392;42.688;23.298;2023-02-28T05:23:28;128.23;;;51.88;;
10687;SDS011;5392;42.688;23.298;2023-02-28T05:25:55;119.13;;;53.28;;
10687;SDS011;5392;42.688;23.298;2023-02-28T05:28:22;123.15;;;51.72;;
10687;SDS011;5392;42.688;23.298;2023-02-28T05:30:49;110.75;;;51.92;;
10687;SDS011;5392;42.688;23.298;2023-02-28T05:33:16;112.20;;;50.95;;
10687;SDS011;5392;42.688;23.298;2023-02-28T05:35:43;98.32;;;45.60;;
10687;SDS011;5392;42.688;23.298;2023-02-28T05:38:09;123.38;;;47.53;;
10687;SDS011;5392;42.688;23.298;2023-02-28T05:40:37;110.93;;;47.08;;
10687;SDS011;5392;42.688;23.298;2023-02-28T05:43:05;98.15;;;44.50;;
10687;SDS011;5392;42.688;23.298;2023-02-28T05:45:34;95.65;;;42.00;;
10687;SDS011;5392;42.688;23.298;2023-02-28T05:48:01;90.18;;;38.83;;
10687;SDS011;5392;42.688;23.298;2023-02-28T05:50:28;88.57;;;39.38;;
10687;SDS011;5392;42.688;23.298;2023-02-28T05:52:55;81.60;;;37.80;;
10687;SDS011;5392;42.688;23.298;2023-02-28T05:55:21;79.57;;;36.38;;
10687;SDS011;5392;42.688;23.298;2023-02-28T05:57:48;82.65;;;38.67;;
10687;SDS011;5392;42.688;23.298;2023-02-28T06:00:15;72.90;;;36.88;;
10687;SDS011;5392;42.688;23.298;2023-02-28T06:02:44;81.75;;;36.58;;
10687;SDS011;5392;42.688;23.298;2023-02-28T06:05:12;67.13;;;33.55;;
10687;SDS011;5392;42.688;23.298;2023-02-28T06:07:41;61.35;;;30.73;;
10687;SDS011;5392;42.688;23.298;2023-02-28T06:10:08;65.43;;;31.67;;
10687;SDS011;5392;42.688;23.298;2023-02-28T06:12:36;74.10;;;33.38;;
10687;SDS011;5392;42.688;23.298;2023-02-28T06:15:03;74.65;;;33.22;;
10687;SDS011;5392;42.688;23.298;2023-02-28T06:17:30;63.50;;;31.45;;
10687;SDS011;5392;42.688;23.298;2023-02-28T06:19:57;56.88;;;29.90;;
10687;SDS011;5392;42.688;23.298;2023-02-28T06:22:23;58.25;;;29.13;;
10687;SDS011;5392;42.688;23.298;2023-02-28T06:24:50;42.92;;;24.10;;
10687;SDS011;5392;42.688;23.298;2023-02-28T06:27:18;44.45;;;23.05;;
10687;SDS011;5392;42.688;23.298;2023-02-28T06:29:46;47.00;;;23.67;;
10687;SDS011;5392;42.688;23.298;2023-02-28T06:32:13;39.92;;;21.17;;
10687;SDS011;5392;42.688;23.298;2023-02-28T06:34:40;38.22;;;22.73;;
10687;SDS011;5392;42.688;23.298;2023-02-28T06:37:06;48.90;;;26.02;;
10687;SDS011;5392;42.688;23.298;2023-02-28T06:39:33;52.92;;;27.92;;
10687;SDS011;5392;42.688;23.298;2023-02-28T06:42:00;59.67;;;27.65;;
10687;SDS011;5392;42.688;23.298;2023-02-28T06:44:26;53.10;;;28.17;;
10687;SDS011;5392;42.688;23.298;2023-02-28T06:46:53;53.35;;;26.95;;
10687;SDS011;5392;42.688;23.298;2023-02-28T06:49:20;54.75;;;27.58;;
10687;SDS011;5392;42.688;23.298;2023-02-28T06:51:46;52.80;;;27.75;;
10687;SDS011;5392;42.688;23.298;2023-02-28T06:54:13;51.10;;;25.63;;
10687;SDS011;5392;42.688;23.298;2023-02-28T06:56:40;51.08;;;27.17;;
10687;SDS011;5392;42.688;23.298;2023-02-28T06:59:06;51.63;;;27.25;;
10687;SDS011;5392;42.688;23.298;2023-02-28T07:01:33;46.67;;;25.25;;
10687;SDS011;5392;42.688;23.298;2023-02-28T07:04:00;37.60;;;22.63;;
10687;SDS011;5392;42.688;23.298;2023-02-28T07:06:27;33.55;;;22.15;;
10687;SDS011;5392;42.688;23.298;2023-02-28T07:08:54;32.47;;;20.42;;
10687;SDS011;5392;42.688;23.298;2023-02-28T07:11:22;40.78;;;22.80;;
10687;SDS011;5392;42.688;23.298;2023-02-28T07:13:54;60.30;;;28.77;;
10687;SDS011;5392;42.688;23.298;2023-02-28T07:16:23;51.13;;;28.50;;
10687;SDS011;5392;42.688;23.298;2023-02-28T07:18:54;55.65;;;29.10;;
10687;SDS011;5392;42.688;23.298;2023-02-28T07:21:21;52.20;;;27.83;;
10687;SDS011;5392;42.688;23.298;2023-02-28T07:23:48;52.45;;;28.55;;
10687;SDS011;5392;42.688;23.298;2023-02-28T07:26:16;52.88;;;26.20;;
10687;SDS011;5392;42.688;23.298;2023-02-28T07:28:44;51.83;;;26.83;;
10687;SDS011;5392;42.688;23.298;2023-02-28T07:31:13;52.47;;;27.83;;
10687;SDS011;5392;42.688;23.298;2023-02-28T07:33:40;47.55;;;27.08;;
10687;SDS011;5392;42.688;23.298;2023-02-28T07:36:08;46.67;;;27.20;;
10687;SDS011;5392;42.688;23.298;2023-02-28T07:38:42;49.47;;;26.75;;
10687;SDS011;5392;42.688;23.298;2023-02-28T07:41:14;40.00;;;23.25;;
10687;SDS011;5392;42.688;23.298;2023-02-28T07:43:42;38.83;;;22.73;;
10687;SDS011;5392;42.688;23.298;2023-02-28T07:46:09;39.65;;;22.02;;
10687;SDS011;5392;42.688;23.298;2023-02-28T07:48:38;36.45;;;21.13;;
10687;SDS011;5392;42.688;23.298;2023-02-28T07:51:05;43.28;;;23.77;;
10687;SDS011;5392;42.688;23.298;2023-02-28T07:53:31;36.15;;;21.45;;
10687;SDS011;5392;42.688;23.298;2023-02-28T07:55:59;33.17;;;21.08;;
10687;SDS011;5392;42.688;23.298;2023-02-28T07:58:27;30.63;;;21.73;;
10687;SDS011;5392;42.688;23.298;2023-02-28T08:00:56;31.48;;;20.42;;
10687;SDS011;5392;42.688;23.298;2023-02-28T08:03:23;36.63;;;21.95;;
10687;SDS011;5392;42.688;23.298;2023-02-28T08:05:51;38.35;;;23.48;;
10687;SDS011;5392;42.688;23.298;2023-02-28T08:08:19;40.47;;;23.17;;
10687;SDS011;5392;42.688;23.298;2023-02-28T08:10:45;31.73;;;20.83;;
10687;SDS011;5392;42.688;23.298;2023-02-28T08:13:12;30.65;;;19.73;;
10687;SDS011;5392;42.688;23.298;2023-02-28T08:15:40;29.02;;;19.35;;
10687;SDS011;5392;42.688;23.298;2023-02-28T08:18:07;34.83;;;22.63;;
10687;SDS011;5392;42.688;23.298;2023-02-28T08:20:37;29.63;;;20.90;;
10687;SDS011;5392;42.688;23.298;2023-02-28T08:23:04;32.13;;;20.63;;
10687;SDS011;5392;42.688;23.298;2023-02-28T08:25:30;30.60;;;19.88;;
10687;SDS011;5392;42.688;23.298;2023-02-28T08:27:57;30.98;;;19.38;;
10687;SDS011;5392;42.688;23.298;2023-02-28T08:30:24;27.83;;;19.65;;
10687;SDS011;5392;42.688;23.298;2023-02-28T08:32:50;38.08;;;23.15;;
10687;SDS011;5392;42.688;23.298;2023-02-28T08:35:17;39.83;;;25.23;;
10687;SDS011;5392;42.688;23.298;2023-02-28T08:37:44;41.97;;;25.02;;
10687;SDS011;5392;42.688;23.298;2023-02-28T08:40:11;38.38;;;23.63;;
10687;SDS011;5392;42.688;23.298;2023-02-28T08:42:44;36.53;;;23.20;;
10687;SDS011;5392;42.688;23.298;2023-02-28T08:45:12;36.90;;;21.98;;
10687;SDS011;5392;42.688;23.298;2023-02-28T08:47:39;41.20;;;22.92;;
10687;SDS011;5392;42.688;23.298;2023-02-28T08:50:06;36.88;;;23.63;;
10687;SDS011;5392;42.688;23.298;2023-02-28T08:52:34;40.10;;;23.33;;
10687;SDS011;5392;42.688;23.298;2023-02-28T08:55:01;33.65;;;22.95;;
10687;SDS011;5392;42.688;23.298;2023-02-28T08:57:27;57.97;;;35.97;;
10687;SDS011;5392;42.688;23.298;2023-02-28T08:59:54;258.30;;;145.57;;
10687;SDS011;5392;42.688;23.298;2023-02-28T09:02:20;271.38;;;133.75;;
10687;SDS011;5392;42.688;23.298;2023-02-28T09:04:47;81.38;;;49.90;;
10687;SDS011;5392;42.688;23.298;2023-02-28T09:07:14;59.13;;;34.63;;
10687;SDS011;5392;42.688;23.298;2023-02-28T09:09:41;59.05;;;32.47;;
10687;SDS011;5392;42.688;23.298;2023-02-28T09:12:26;58.85;;;33.60;;
10687;SDS011;5392;42.688;23.298;2023-02-28T09:14:53;68.60;;;38.60;;
10687;SDS011;5392;42.688;23.298;2023-02-28T09:17:20;68.85;;;41.13;;
10687;SDS011;5392;42.688;23.298;2023-02-28T09:19:47;66.28;;;41.33;;
10687;SDS011;5392;42.688;23.298;2023-02-28T09:22:15;75.50;;;41.58;;
10687;SDS011;5392;42.688;23.298;2023-02-28T09:24:42;65.60;;;39.25;;
10687;SDS011;5392;42.688;23.298;2023-02-28T09:27:11;66.93;;;39.25;;
10687;SDS011;5392;42.688;23.298;2023-02-28T09:29:37;67.68;;;40.65;;
10687;SDS011;5392;42.688;23.298;2023-02-28T09:32:04;70.95;;;39.63;;
10687;SDS011;5392;42.688;23.298;2023-02-28T09:34:32;63.95;;;37.83;;
10687;SDS011;5392;42.688;23.298;2023-02-28T09:36:59;56.60;;;33.08;;
10687;SDS011;5392;42.688;23.298;2023-02-28T09:39:26;54.65;;;30.77;;
10687;SDS011;5392;42.688;23.298;2023-02-28T09:41:53;59.80;;;33.97;;
10687;SDS011;5392;42.688;23.298;2023-02-28T09:44:40;58.22;;;33.95;;
10687;SDS011;5392;42.688;23.298;2023-02-28T09:50:20;54.58;;;32.42;;
10687;SDS011;5392;42.688;23.298;2023-02-28T09:52:49;56.42;;;31.17;;
10687;SDS011;5392;42.688;23.298;2023-02-28T09:55:22;58.33;;;31.15;;
10687;SDS011;5392;42.688;23.298;2023-02-28T09:58:20;46.65;;;30.58;;
10687;SDS011;5392;42.688;23.298;2023-02-28T10:00:53;48.53;;;29.92;;
10687;SDS011;5392;42.688;23.298;2023-02-28T10:03:37;54.97;;;31.00;;
10687;SDS011;5392;42.688;23.298;2023-02-28T10:06:20;45.33;;;30.27;;
10687;SDS011;5392;42.688;23.298;2023-02-28T10:09:06;48.85;;;29.55;;
10687;SDS011;5392;42.688;23.298;2023-02-28T10:11:41;42.13;;;27.90;;
10687;SDS011;5392;42.688;23.298;2023-02-28T10:16:48;40.38;;;24.92;;
10687;SDS011;5392;42.688;23.298;2023-02-28T10:19:24;29.42;;;16.63;;
10687;SDS011;5392;42.688;23.298;2023-02-28T10:22:00;23.60;;;11.40;;
10687;SDS011;5392;42.688;23.298;2023-02-28T10:24:42;18.17;;;9.98;;
10687;SDS011;5392;42.688;23.298;2023-02-28T10:27:23;24.73;;;10.50;;
10687;SDS011;5392;42.688;23.298;2023-02-28T10:29:55;23.55;;;9.63;;
10687;SDS011;5392;42.688;23.298;2023-02-28T10:37:38;19.60;;;8.93;;
10687;SDS011;5392;42.688;23.298;2023-02-28T10:43:05;19.73;;;8.35;;
10687;SDS011;5392;42.688;23.298;2023-02-28T10:45:56;23.23;;;9.80;;
10687;SDS011;5392;42.688;23.298;2023-02-28T10:48:47;17.52;;;8.13;;
10687;SDS011;5392;42.688;23.298;2023-02-28T10:51:26;11.80;;;5.70;;
10687;SDS011;5392;42.688;23.298;2023-02-28T10:54:01;12.93;;;7.97;;
10687;SDS011;5392;42.688;23.298;2023-02-28T10:56:29;19.25;;;8.18;;
10687;SDS011;5392;42.688;23.298;2023-02-28T10:58:58;18.73;;;9.65;;
10687;SDS011;5392;42.688;23.298;2023-02-28T11:03:59;11.55;;;6.60;;
10687;SDS011;5392;42.688;23.298;2023-02-28T11:06:26;14.13;;;7.43;;
10687;SDS011;5392;42.688;23.298;2023-02-28T11:09:02;22.17;;;8.32;;
10687;SDS011;5392;42.688;23.298;2023-02-28T11:11:41;18.95;;;8.55;;
10687;SDS011;5392;42.688;23.298;2023-02-28T11:14:20;15.75;;;7.25;;
10687;SDS011;5392;42.688;23.298;2023-02-28T11:16:50;16.23;;;7.82;;
10687;SDS011;5392;42.688;23.298;2023-02-28T11:19:28;16.95;;;6.47;;
10687;SDS011;5392;42.688;23.298;2023-02-28T11:22:00;11.43;;;4.25;;
10687;SDS011;5392;42.688;23.298;2023-02-28T11:27:26;11.10;;;5.75;;
10687;SDS011;5392;42.688;23.298;2023-02-28T11:32:53;15.38;;;7.40;;
10687;SDS011;5392;42.688;23.298;2023-02-28T11:35:36;11.18;;;6.18;;
10687;SDS011;5392;42.688;23.298;2023-02-28T11:38:07;15.65;;;6.68;;
10687;SDS011;5392;42.688;23.298;2023-02-28T11:54:28;15.27;;;7.90;;
10687;SDS011;5392;42.688;23.298;2023-02-28T12:16:25;24.42;;;9.57;;
10687;SDS011;5392;42.688;23.298;2023-02-28T12:27:19;16.55;;;6.47;;
10687;SDS011;5392;42.688;23.298;2023-02-28T12:29:54;18.58;;;7.13;;
10687;SDS011;5392;42.688;23.298;2023-02-28T12:40:05;14.48;;;8.13;;
10687;SDS011;5392;42.688;23.298;2023-02-28T12:42:39;19.13;;;8.40;;
10687;SDS011;5392;42.688;23.298;2023-02-28T12:45:14;14.30;;;7.10;;
10687;SDS011;5392;42.688;23.298;2023-02-28T12:47:44;13.20;;;6.72;;
10687;SDS011;5392;42.688;23.298;2023-02-28T12:50:13;16.67;;;7.72;;
10687;SDS011;5392;42.688;23.298;2023-02-28T12:52:54;18.05;;;8.02;;
10687;SDS011;5392;42.688;23.298;2023-02-28T12:56:02;13.75;;;6.38;;
10687;SDS011;5392;42.688;23.298;2023-02-28T12:58:35;18.33;;;6.80;;
10687;SDS011;5392;42.688;23.298;2023-02-28T13:04:25;12.43;;;5.00;;
10687;SDS011;5392;42.688;23.298;2023-02-28T13:09:34;11.27;;;4.40;;
10687;SDS011;5392;42.688;23.298;2023-02-28T13:12:01;13.23;;;6.13;;
10687;SDS011;5392;42.688;23.298;2023-02-28T13:14:39;12.98;;;5.47;;
10687;SDS011;5392;42.688;23.298;2023-02-28T13:19:34;15.50;;;5.78;;
10687;SDS011;5392;42.688;23.298;2023-02-28T13:22:03;9.65;;;4.22;;
10687;SDS011;5392;42.688;23.298;2023-02-28T13:29:37;6.07;;;2.90;;
10687;SDS011;5392;42.688;23.298;2023-02-28T13:34:36;16.95;;;5.72;;
10687;SDS011;5392;42.688;23.298;2023-02-28T13:47:32;14.50;;;7.32;;
10687;SDS011;5392;42.688;23.298;2023-02-28T13:58:39;14.48;;;7.63;;
10687;SDS011;5392;42.688;23.298;2023-02-28T14:07:04;15.90;;;6.90;;
10687;SDS011;5392;42.688;23.298;2023-02-28T14:09:36;11.07;;;5.30;;
10687;SDS011;5392;42.688;23.298;2023-02-28T14:15:30;7.28;;;4.10;;
10687;SDS011;5392;42.688;23.298;2023-02-28T14:21:00;20.38;;;6.10;;
10687;SDS011;5392;42.688;23.298;2023-02-28T14:31:44;8.48;;;4.45;;
10687;SDS011;5392;42.688;23.298;2023-02-28T14:34:41;10.52;;;5.88;;
10687;SDS011;5392;42.688;23.298;2023-02-28T14:37:25;17.60;;;6.90;;
10687;SDS011;5392;42.688;23.298;2023-02-28T14:39:54;12.05;;;5.85;;
10687;SDS011;5392;42.688;23.298;2023-02-28T14:44:57;8.60;;;4.10;;
10687;SDS011;5392;42.688;23.298;2023-02-28T14:47:26;8.95;;;3.88;;
10687;SDS011;5392;42.688;23.298;2023-02-28T14:49:58;22.10;;;7.90;;
10687;SDS011;5392;42.688;23.298;2023-02-28T14:52:27;17.45;;;6.35;;
10687;SDS011;5392;42.688;23.298;2023-02-28T14:54:59;17.88;;;7.15;;
10687;SDS011;5392;42.688;23.298;2023-02-28T14:57:34;19.10;;;5.72;;
10687;SDS011;5392;42.688;23.298;2023-02-28T15:00:14;13.90;;;6.05;;
10687;SDS011;5392;42.688;23.298;2023-02-28T15:02:58;14.80;;;6.90;;
10687;SDS011;5392;42.688;23.298;2023-02-28T15:10:44;14.40;;;6.05;;
10687;SDS011;5392;42.688;23.298;2023-02-28T15:13:17;7.93;;;4.25;;
10687;SDS011;5392;42.688;23.298;2023-02-28T15:21:26;8.23;;;3.97;;
10687;SDS011;5392;42.688;23.298;2023-02-28T15:26:30;12.73;;;4.60;;
10687;SDS011;5392;42.688;23.298;2023-02-28T15:29:05;12.70;;;5.68;;
10687;SDS011;5392;42.688;23.298;2023-02-28T15:31:35;15.15;;;6.03;;
10687;SDS011;5392;42.688;23.298;2023-02-28T15:34:43;13.13;;;5.05;;
10687;SDS011;5392;42.688;23.298;2023-02-28T15:40:07;14.07;;;5.35;;
10687;SDS011;5392;42.688;23.298;2023-02-28T15:43:06;12.98;;;5.57;;
10687;SDS011;5392;42.688;23.298;2023-02-28T15:45:47;9.30;;;5.53;;
10687;SDS011;5392;42.688;23.298;2023-02-28T15:48:20;13.75;;;5.57;;
10687;SDS011;5392;42.688;23.298;2023-02-28T15:50:49;8.88;;;5.20;;
10687;SDS011;5392;42.688;23.298;2023-02-28T15:53:20;10.05;;;4.43;;
10687;SDS011;5392;42.688;23.298;2023-02-28T15:55:58;11.25;;;4.38;;
10687;SDS011;5392;42.688;23.298;2023-02-28T15:58:29;6.00;;;3.58;;
10687;SDS011;5392;42.688;23.298;2023-02-28T16:01:00;8.95;;;4.10;;
10687;SDS011;5392;42.688;23.298;2023-02-28T16:03:43;2.97;;;1.30;;
10687;SDS011;5392;42.688;23.298;2023-02-28T16:06:26;7.28;;;4.80;;
10687;SDS011;5392;42.688;23.298;2023-02-28T16:08:57;12.00;;;4.90;;
10687;SDS011;5392;42.688;23.298;2023-02-28T16:11:24;9.75;;;5.55;;
10687;SDS011;5392;42.688;23.298;2023-02-28T16:13:51;9.15;;;6.68;;
10687;SDS011;5392;42.688;23.298;2023-02-28T16:16:22;9.77;;;6.20;;
10687;SDS011;5392;42.688;23.298;2023-02-28T16:18:51;11.77;;;8.18;;
10687;SDS011;5392;42.688;23.298;2023-02-28T16:21:18;10.05;;;5.60;;
10687;SDS011;5392;42.688;23.298;2023-02-28T16:23:45;13.65;;;6.05;;
10687;SDS011;5392;42.688;23.298;2023-02-28T16:26:15;3.72;;;3.30;;
10687;SDS011;5392;42.688;23.298;2023-02-28T16:28:47;10.07;;;3.42;;
10687;SDS011;5392;42.688;23.298;2023-02-28T16:31:14;5.00;;;2.88;;
10687;SDS011;5392;42.688;23.298;2023-02-28T16:33:43;8.10;;;4.95;;
10687;SDS011;5392;42.688;23.298;2023-02-28T16:36:16;7.95;;;6.43;;
10687;SDS011;5392;42.688;23.298;2023-02-28T16:38:45;8.70;;;4.07;;
10687;SDS011;5392;42.688;23.298;2023-02-28T16:41:12;4.55;;;2.78;;
10687;SDS011;5392;42.688;23.298;2023-02-28T16:43:45;5.70;;;3.25;;
10687;SDS011;5392;42.688;23.298;2023-02-28T16:46:14;2.47;;;1.75;;
10687;SDS011;5392;42.688;23.298;2023-02-28T16:48:41;5.90;;;3.78;;
10687;SDS011;5392;42.688;23.298;2023-02-28T16:51:11;5.53;;;2.63;;
10687;SDS011;5392;42.688;23.298;2023-02-28T16:53:39;10.68;;;2.65;;
10687;SDS011;5392;42.688;23.298;2023-02-28T16:56:06;4.25;;;1.45;;
10687;SDS011;5392;42.688;23.298;2023-02-28T16:58:40;6.70;;;3.67;;
10687;SDS011;5392;42.688;23.298;2023-02-28T17:01:07;2.60;;;1.77;;
10687;SDS011;5392;42.688;23.298;2023-02-28T17:03:33;3.10;;;2.55;;
10687;SDS011;5392;42.688;23.298;2023-02-28T17:06:02;5.60;;;2.80;;
10687;SDS011;5392;42.688;23.298;2023-02-28T17:08:30;2.28;;;1.90;;
10687;SDS011;5392;42.688;23.298;2023-02-28T17:10:58;3.17;;;2.35;;
10687;SDS011;5392;42.688;23.298;2023-02-28T17:13:25;2.08;;;1.83;;
10687;SDS011;5392;42.688;23.298;2023-02-28T17:15:52;4.10;;;2.22;;
10687;SDS011;5392;42.688;23.298;2023-02-28T17:18:19;4.15;;;3.05;;
10687;SDS011;5392;42.688;23.298;2023-02-28T17:20:47;5.72;;;4.03;;
10687;SDS011;5392;42.688;23.298;2023-02-28T17:23:14;7.80;;;3.35;;
10687;SDS011;5392;42.688;23.298;2023-02-28T17:25:42;6.05;;;3.15;;
10687;SDS011;5392;42.688;23.298;2023-02-28T17:28:23;1.30;;;1.20;;
10687;SDS011;5392;42.688;23.298;2023-02-28T17:30:49;4.78;;;2.00;;
10687;SDS011;5392;42.688;23.298;2023-02-28T17:33:16;2.10;;;1.55;;
10687;SDS011;5392;42.688;23.298;2023-02-28T17:35:43;5.25;;;2.22;;
10687;SDS011;5392;42.688;23.298;2023-02-28T17:38:17;1.63;;;1.52;;
10687;SDS011;5392;42.688;23.298;2023-02-28T17:40:44;3.15;;;1.65;;
10687;SDS011;5392;42.688;23.298;2023-02-28T17:43:11;0.93;;;0.85;;
10687;SDS011;5392;42.688;23.298;2023-02-28T17:45:38;5.28;;;1.85;;
10687;SDS011;5392;42.688;23.298;2023-02-28T17:48:05;3.65;;;1.05;;
10687;SDS011;5392;42.688;23.298;2023-02-28T17:50:32;1.88;;;1.25;;
10687;SDS011;5392;42.688;23.298;2023-02-28T17:52:59;2.60;;;1.38;;
10687;SDS011;5392;42.688;23.298;2023-02-28T17:55:26;1.15;;;1.05;;
10687;SDS011;5392;42.688;23.298;2023-02-28T17:57:52;3.53;;;1.17;;
10687;SDS011;5392;42.688;23.298;2023-02-28T18:00:19;0.60;;;0.60;;
10687;SDS011;5392;42.688;23.298;2023-02-28T18:02:50;3.50;;;1.38;;